ITY290 LSZH-EHAM
Flight info
| Callsign | ITY290 |
|---|---|
| Flight time | 0h 55m |
| Altitude | 36000 |
| Route | VEBIT T10 TORPA DCT EDOPI DCT GIVOR DCT SORAL DCT IBERA DCT BUB/N0410F300 Y28 HELEN |
| Aircraft | A320/M-SDE3FGHIRWY/LB1 |
Departure
| Time | 2026-04-30 21:18 |
|---|---|
| Airport | Zürich Airport (LSZH) |
Arrival
| Time | 2026-04-30 22:13 |
|---|---|
| Airport | Amsterdam Airport Schiphol (EHAM) |
| Time | Latitude | Longitude | Altitude | Speed | Heading |
|---|---|---|---|---|---|
| 2026-04-30 21:18 | 47.45242 | 8.64645 | 4168 ft | 209 kts | 81° |
| 2026-04-30 21:18 | 47.45742 | 8.66682 | 4753 ft | 216 kts | 57° |
| 2026-04-30 21:18 | 47.46822 | 8.68261 | 5289 ft | 225 kts | 31° |
| 2026-04-30 21:19 | 47.48315 | 8.68997 | 5912 ft | 231 kts | 7° |
| 2026-04-30 21:19 | 47.48566 | 8.69020 | 6020 ft | 232 kts | 3° |
| 2026-04-30 21:19 | 47.50150 | 8.68529 | 6618 ft | 238 kts | 334° |
| 2026-04-30 21:19 | 47.51422 | 8.66946 | 7210 ft | 243 kts | 305° |
| 2026-04-30 21:20 | 47.52061 | 8.64645 | 7794 ft | 245 kts | 276° |
| 2026-04-30 21:20 | 47.51887 | 8.62142 | 8330 ft | 248 kts | 246° |
| 2026-04-30 21:20 | 47.51003 | 8.59948 | 8799 ft | 254 kts | 233° |
| 2026-04-30 21:20 | 47.49938 | 8.57711 | 8954 ft | 277 kts | 233° |
| 2026-04-30 21:21 | 47.48792 | 8.55313 | 9160 ft | 292 kts | 233° |
| 2026-04-30 21:21 | 47.47622 | 8.52826 | 9639 ft | 295 kts | 238° |
| 2026-04-30 21:21 | 47.46830 | 8.46961 | 10397 ft | 306 kts | 282° |
| 2026-04-30 21:22 | 47.47663 | 8.44038 | 10539 ft | 319 kts | 307° |
| 2026-04-30 21:22 | 47.53114 | 8.37588 | 12538 ft | 344 kts | 325° |
| 2026-04-30 21:23 | 47.55055 | 8.35458 | 13304 ft | 350 kts | 326° |
| 2026-04-30 21:23 | 47.57029 | 8.33281 | 14004 ft | 357 kts | 328° |
| 2026-04-30 21:23 | 47.61016 | 8.28860 | 15439 ft | 364 kts | 327° |
| 2026-04-30 21:24 | 47.63057 | 8.26598 | 16167 ft | 367 kts | 327° |
| 2026-04-30 21:24 | 47.65111 | 8.24335 | 16901 ft | 369 kts | 327° |
| 2026-04-30 21:24 | 47.67189 | 8.22078 | 17618 ft | 372 kts | 328° |
| 2026-04-30 21:24 | 47.69271 | 8.19777 | 18325 ft | 375 kts | 326° |
| 2026-04-30 21:25 | 47.73723 | 8.15738 | 19576 ft | 377 kts | 338° |
| 2026-04-30 21:25 | 47.76076 | 8.13991 | 20186 ft | 380 kts | 338° |
| 2026-04-30 21:25 | 47.78455 | 8.12245 | 20726 ft | 385 kts | 338° |
| 2026-04-30 21:26 | 47.83342 | 8.08684 | 21779 ft | 395 kts | 337° |
| 2026-04-30 21:26 | 47.85824 | 8.06873 | 22362 ft | 399 kts | 337° |
| 2026-04-30 21:27 | 47.90841 | 8.03190 | 23513 ft | 404 kts | 338° |
| 2026-04-30 21:27 | 47.93335 | 8.01347 | 24039 ft | 407 kts | 336° |
| 2026-04-30 21:27 | 47.95915 | 7.99438 | 24471 ft | 410 kts | 338° |
| 2026-04-30 21:28 | 48.01065 | 7.95618 | 25311 ft | 416 kts | 337° |
| 2026-04-30 21:28 | 48.03669 | 7.93687 | 25734 ft | 419 kts | 338° |
| 2026-04-30 21:28 | 48.08888 | 7.89812 | 26534 ft | 424 kts | 338° |
| 2026-04-30 21:29 | 48.11535 | 7.87846 | 26935 ft | 427 kts | 337° |
| 2026-04-30 21:29 | 48.19585 | 7.81861 | 28063 ft | 434 kts | 337° |
| 2026-04-30 21:30 | 48.24102 | 7.78487 | 28682 ft | 438 kts | 337° |
| 2026-04-30 21:31 | 48.32356 | 7.72299 | 29672 ft | 446 kts | 336° |
| 2026-04-30 21:31 | 48.37947 | 7.68100 | 30289 ft | 451 kts | 336° |
| 2026-04-30 21:32 | 48.43584 | 7.63849 | 30808 ft | 455 kts | 336° |
| 2026-04-30 21:32 | 48.46420 | 7.61704 | 31063 ft | 456 kts | 336° |
| 2026-04-30 21:32 | 48.49263 | 7.59553 | 31351 ft | 457 kts | 336° |
| 2026-04-30 21:32 | 48.52092 | 7.57409 | 31700 ft | 455 kts | 336° |
| 2026-04-30 21:33 | 48.54882 | 7.55296 | 32057 ft | 453 kts | 336° |
| 2026-04-30 21:33 | 48.60501 | 7.51034 | 32794 ft | 450 kts | 336° |
| 2026-04-30 21:33 | 48.63298 | 7.48904 | 33158 ft | 449 kts | 336° |
| 2026-04-30 21:34 | 48.66083 | 7.46783 | 33523 ft | 447 kts | 337° |
| 2026-04-30 21:34 | 48.71624 | 7.42561 | 34275 ft | 444 kts | 337° |
| 2026-04-30 21:34 | 48.74379 | 7.40454 | 34552 ft | 444 kts | 336° |
| 2026-04-30 21:35 | 48.77143 | 7.38338 | 34798 ft | 445 kts | 336° |
| 2026-04-30 21:35 | 48.79910 | 7.36216 | 35075 ft | 445 kts | 336° |
| 2026-04-30 21:35 | 48.82671 | 7.34099 | 35342 ft | 445 kts | 336° |
| 2026-04-30 21:35 | 48.85433 | 7.31981 | 35625 ft | 444 kts | 336° |
| 2026-04-30 21:36 | 48.88186 | 7.29864 | 35905 ft | 443 kts | 336° |
| 2026-04-30 21:36 | 48.90902 | 7.27771 | 36167 ft | 443 kts | 336° |
| 2026-04-30 21:37 | 48.99142 | 7.21406 | 36297 ft | 442 kts | 336° |
| 2026-04-30 21:37 | 49.01888 | 7.19285 | 36299 ft | 442 kts | 336° |
| 2026-04-30 21:37 | 49.07369 | 7.15045 | 36302 ft | 442 kts | 336° |
| 2026-04-30 21:38 | 49.12851 | 7.10786 | 36302 ft | 442 kts | 336° |
| 2026-04-30 21:38 | 49.18329 | 7.06516 | 36289 ft | 443 kts | 336° |
| 2026-04-30 21:39 | 49.23823 | 7.02218 | 36293 ft | 444 kts | 336° |
| 2026-04-30 21:39 | 49.29327 | 6.97915 | 36295 ft | 444 kts | 336° |
| 2026-04-30 21:40 | 49.34835 | 6.93587 | 36292 ft | 445 kts | 335° |
| 2026-04-30 21:40 | 49.40350 | 6.89234 | 36297 ft | 445 kts | 335° |
| 2026-04-30 21:41 | 49.45860 | 6.84893 | 36303 ft | 445 kts | 335° |
| 2026-04-30 21:41 | 49.51374 | 6.80535 | 36303 ft | 446 kts | 335° |
| 2026-04-30 21:42 | 49.56858 | 6.76195 | 36298 ft | 445 kts | 335° |
| 2026-04-30 21:42 | 49.62366 | 6.71819 | 36293 ft | 446 kts | 335° |
| 2026-04-30 21:43 | 49.67886 | 6.67411 | 36295 ft | 447 kts | 335° |
| 2026-04-30 21:43 | 49.73410 | 6.62983 | 36295 ft | 447 kts | 335° |
| 2026-04-30 21:44 | 49.78937 | 6.58559 | 36293 ft | 447 kts | 335° |
| 2026-04-30 21:44 | 49.84469 | 6.54124 | 36296 ft | 447 kts | 335° |
| 2026-04-30 21:45 | 49.89960 | 6.49699 | 36300 ft | 447 kts | 335° |
| 2026-04-30 21:45 | 49.95495 | 6.45226 | 36302 ft | 447 kts | 335° |
| 2026-04-30 21:46 | 50.01016 | 6.40756 | 36303 ft | 447 kts | 334° |
| 2026-04-30 21:46 | 50.06535 | 6.36275 | 36298 ft | 447 kts | 334° |
| 2026-04-30 21:47 | 50.12055 | 6.31779 | 36303 ft | 448 kts | 334° |
| 2026-04-30 21:47 | 50.17577 | 6.27270 | 36305 ft | 448 kts | 334° |
| 2026-04-30 21:48 | 50.23100 | 6.22748 | 36307 ft | 448 kts | 334° |
| 2026-04-30 21:48 | 50.28622 | 6.18228 | 36308 ft | 448 kts | 334° |
| 2026-04-30 21:49 | 50.34147 | 6.13706 | 36315 ft | 448 kts | 334° |
| 2026-04-30 21:49 | 50.39636 | 6.09183 | 36314 ft | 448 kts | 334° |
| 2026-04-30 21:50 | 50.45158 | 6.04599 | 35881 ft | 448 kts | 334° |
| 2026-04-30 21:50 | 50.47921 | 6.02300 | 35628 ft | 449 kts | 333° |
| 2026-04-30 21:50 | 50.50687 | 5.99998 | 35371 ft | 450 kts | 334° |
| 2026-04-30 21:51 | 50.53457 | 5.97696 | 35125 ft | 451 kts | 334° |
| 2026-04-30 21:51 | 50.56236 | 5.95390 | 34880 ft | 451 kts | 334° |
| 2026-04-30 21:51 | 50.59023 | 5.93077 | 34634 ft | 452 kts | 334° |
| 2026-04-30 21:51 | 50.61804 | 5.90764 | 34389 ft | 452 kts | 334° |
| 2026-04-30 21:52 | 50.64603 | 5.88432 | 34145 ft | 453 kts | 334° |
| 2026-04-30 21:52 | 50.67349 | 5.86139 | 33875 ft | 454 kts | 334° |
| 2026-04-30 21:52 | 50.70143 | 5.83801 | 33603 ft | 455 kts | 333° |
| 2026-04-30 21:52 | 50.72937 | 5.81456 | 33334 ft | 455 kts | 333° |
| 2026-04-30 21:53 | 50.75737 | 5.79099 | 33065 ft | 456 kts | 333° |
| 2026-04-30 21:53 | 50.78532 | 5.76740 | 32802 ft | 456 kts | 333° |
| 2026-04-30 21:53 | 50.81340 | 5.74372 | 32540 ft | 457 kts | 333° |
| 2026-04-30 21:53 | 50.84151 | 5.72004 | 32281 ft | 458 kts | 333° |
| 2026-04-30 21:54 | 50.86960 | 5.69638 | 32027 ft | 458 kts | 333° |
| 2026-04-30 21:54 | 50.89778 | 5.67262 | 31769 ft | 459 kts | 333° |
| 2026-04-30 21:54 | 50.92598 | 5.64875 | 31333 ft | 459 kts | 333° |
| 2026-04-30 21:54 | 50.95409 | 5.62488 | 30743 ft | 457 kts | 333° |
| 2026-04-30 21:55 | 50.98204 | 5.60105 | 30132 ft | 454 kts | 333° |
| 2026-04-30 21:55 | 51.00975 | 5.57739 | 29568 ft | 451 kts | 333° |
| 2026-04-30 21:55 | 51.03728 | 5.55393 | 29016 ft | 448 kts | 333° |
| 2026-04-30 21:55 | 51.06464 | 5.53069 | 28489 ft | 445 kts | 333° |
| 2026-04-30 21:56 | 51.09186 | 5.50756 | 27965 ft | 442 kts | 333° |
| 2026-04-30 21:56 | 51.11885 | 5.48456 | 27455 ft | 439 kts | 333° |
| 2026-04-30 21:56 | 51.14561 | 5.46168 | 27029 ft | 432 kts | 333° |
| 2026-04-30 21:56 | 51.17162 | 5.43934 | 26858 ft | 418 kts | 333° |
| 2026-04-30 21:57 | 51.19695 | 5.41754 | 26458 ft | 411 kts | 333° |
| 2026-04-30 21:57 | 51.22204 | 5.39594 | 25987 ft | 407 kts | 333° |
| 2026-04-30 21:57 | 51.24656 | 5.37479 | 25514 ft | 404 kts | 333° |
| 2026-04-30 21:57 | 51.27127 | 5.35351 | 25030 ft | 402 kts | 333° |
| 2026-04-30 21:58 | 51.29575 | 5.33238 | 24547 ft | 399 kts | 333° |
| 2026-04-30 21:58 | 51.32016 | 5.31130 | 24067 ft | 397 kts | 333° |
| 2026-04-30 21:58 | 51.34443 | 5.29033 | 23536 ft | 395 kts | 333° |
| 2026-04-30 21:58 | 51.36854 | 5.26949 | 23007 ft | 393 kts | 333° |
| 2026-04-30 21:59 | 51.39248 | 5.24880 | 22508 ft | 390 kts | 333° |
| 2026-04-30 21:59 | 51.41634 | 5.22817 | 22016 ft | 387 kts | 333° |
| 2026-04-30 21:59 | 51.43995 | 5.20773 | 21534 ft | 385 kts | 333° |
| 2026-04-30 22:00 | 51.48605 | 5.16767 | 20364 ft | 372 kts | 333° |
| 2026-04-30 22:00 | 51.53156 | 5.12789 | 18952 ft | 372 kts | 333° |
| 2026-04-30 22:00 | 51.55429 | 5.10798 | 18458 ft | 371 kts | 333° |
| 2026-04-30 22:01 | 51.57691 | 5.08817 | 17966 ft | 369 kts | 333° |
| 2026-04-30 22:01 | 51.59939 | 5.06849 | 17515 ft | 364 kts | 333° |
| 2026-04-30 22:01 | 51.62125 | 5.04935 | 17019 ft | 353 kts | 333° |
| 2026-04-30 22:01 | 51.64270 | 5.03051 | 16614 ft | 351 kts | 333° |
| 2026-04-30 22:02 | 51.66407 | 5.01170 | 16179 ft | 348 kts | 333° |
| 2026-04-30 22:02 | 51.68529 | 4.99303 | 15749 ft | 347 kts | 333° |
| 2026-04-30 22:02 | 51.70622 | 4.97459 | 15358 ft | 336 kts | 333° |
| 2026-04-30 22:02 | 51.72657 | 4.95665 | 14912 ft | 332 kts | 333° |
| 2026-04-30 22:03 | 51.74675 | 4.93884 | 14499 ft | 330 kts | 333° |
| 2026-04-30 22:03 | 51.76680 | 4.92117 | 14082 ft | 328 kts | 333° |
| 2026-04-30 22:03 | 51.78650 | 4.90379 | 13772 ft | 313 kts | 333° |
| 2026-04-30 22:03 | 51.80524 | 4.88718 | 13322 ft | 306 kts | 333° |
| 2026-04-30 22:04 | 51.82400 | 4.87054 | 12869 ft | 308 kts | 333° |
| 2026-04-30 22:04 | 51.84279 | 4.85388 | 12471 ft | 308 kts | 333° |
| 2026-04-30 22:04 | 51.88016 | 4.82069 | 11662 ft | 305 kts | 333° |
| 2026-04-30 22:05 | 51.89872 | 4.80421 | 11261 ft | 303 kts | 333° |
| 2026-04-30 22:05 | 51.91715 | 4.78787 | 10853 ft | 301 kts | 333° |
| 2026-04-30 22:05 | 51.93543 | 4.77160 | 10446 ft | 298 kts | 333° |
| 2026-04-30 22:05 | 51.95332 | 4.75564 | 10002 ft | 289 kts | 333° |
| 2026-04-30 22:06 | 51.97059 | 4.74019 | 9599 ft | 278 kts | 332° |
| 2026-04-30 22:06 | 52.00336 | 4.71082 | 8827 ft | 262 kts | 333° |
| 2026-04-30 22:06 | 52.01923 | 4.69665 | 8450 ft | 260 kts | 333° |
| 2026-04-30 22:07 | 52.03502 | 4.68255 | 8058 ft | 259 kts | 333° |
| 2026-04-30 22:07 | 52.05066 | 4.66857 | 7665 ft | 254 kts | 333° |
| 2026-04-30 22:07 | 52.06598 | 4.65483 | 7284 ft | 249 kts | 333° |
| 2026-04-30 22:07 | 52.08101 | 4.64132 | 6894 ft | 246 kts | 333° |
| 2026-04-30 22:08 | 52.09588 | 4.62798 | 6490 ft | 243 kts | 333° |
| 2026-04-30 22:08 | 52.11058 | 4.61481 | 6094 ft | 239 kts | 333° |
| 2026-04-30 22:08 | 52.12501 | 4.60185 | 5705 ft | 236 kts | 333° |
| 2026-04-30 22:08 | 52.13926 | 4.58901 | 5326 ft | 233 kts | 332° |
| 2026-04-30 22:09 | 52.15337 | 4.57626 | 4931 ft | 231 kts | 332° |
| 2026-04-30 22:09 | 52.16731 | 4.56364 | 4543 ft | 228 kts | 332° |
| 2026-04-30 22:09 | 52.18177 | 4.55364 | 4159 ft | 224 kts | 350° |
| 2026-04-30 22:09 | 52.19727 | 4.55177 | 3598 ft | 225 kts | 12° |
| 2026-04-30 22:10 | 52.21213 | 4.55860 | 3083 ft | 220 kts | 33° |
| 2026-04-30 22:10 | 52.22447 | 4.57290 | 2517 ft | 216 kts | 54° |
| 2026-04-30 22:10 | 52.23307 | 4.59186 | 2118 ft | 199 kts | 66° |
| 2026-04-30 22:10 | 52.24016 | 4.61012 | 1821 ft | 182 kts | 66° |
| 2026-04-30 22:11 | 52.25229 | 4.64151 | 1371 ft | 150 kts | 68° |
| 2026-04-30 22:11 | 52.25755 | 4.65512 | 1204 ft | 134 kts | 68° |
| 2026-04-30 22:11 | 52.26234 | 4.66758 | 1019 ft | 126 kts | 69° |
| 2026-04-30 22:12 | 52.26694 | 4.67958 | 842 ft | 124 kts | 69° |
| 2026-04-30 22:12 | 52.27149 | 4.69144 | 677 ft | 126 kts | 66° |
| 2026-04-30 22:12 | 52.27615 | 4.70354 | 509 ft | 125 kts | 63° |
| 2026-04-30 22:12 | 52.28081 | 4.71536 | 333 ft | 124 kts | 63° |
| 2026-04-30 22:13 | 52.28539 | 4.72750 | 154 ft | 127 kts | 63° |
| 2026-04-30 22:13 | 52.29007 | 4.73962 | 19 ft | 125 kts | 62° |
| 2026-04-30 22:13 | 52.29409 | 4.75024 | -2 ft | 77 kts | 58° |
| 2026-04-30 22:13 | 52.29544 | 4.75369 | -2 ft | 14 kts | 58° |
| 2026-04-30 22:14 | 52.29630 | 4.75591 | -1 ft | 24 kts | 54° |
| 2026-04-30 22:14 | 52.29754 | 4.75779 | -2 ft | 15 kts | 31° |
| 2026-04-30 22:14 | 52.29849 | 4.75856 | -1 ft | 16 kts | 29° |
| 2026-04-30 22:14 | 52.29956 | 4.75948 | -1 ft | 18 kts | 25° |
| 2026-04-30 22:15 | 52.30071 | 4.75951 | -1 ft | 16 kts | 32° |
| 2026-04-30 22:15 | 52.30134 | 4.76111 | -1 ft | 18 kts | 62° |
| 2026-04-30 22:15 | 52.30203 | 4.76228 | -1 ft | 10 kts | 13° |
| 2026-04-30 22:15 | 52.30261 | 4.76198 | -1 ft | 8 kts | 338° |
| 2026-04-30 22:16 | 52.30295 | 4.76210 | -1 ft | 7 kts | 35° |
| 2026-04-30 22:16 | 52.30311 | 4.76245 | -1 ft | 0 kts | 58° |